createdAt,value
2023-01-23T00:01:13.732Z,24.60
2023-01-23T00:03:41.667Z,28.83
2023-01-23T00:06:11.549Z,25.83
2023-01-23T00:08:39.689Z,33.35
2023-01-23T00:11:08.195Z,24.50
2023-01-23T00:13:37.615Z,32.50
2023-01-23T00:16:06.427Z,24.58
2023-01-23T00:18:34.391Z,22.50
2023-01-23T00:21:05.237Z,28.88
2023-01-23T00:23:33.330Z,22.52
2023-01-23T00:26:05.228Z,26.85
2023-01-23T00:28:33.081Z,24.65
2023-01-23T00:31:08.644Z,26.88
2023-01-23T00:33:36.738Z,23.50
2023-01-23T00:36:05.072Z,24.50
2023-01-23T00:38:34.280Z,27.48
2023-01-23T00:41:02.387Z,30.15
2023-01-23T00:43:30.617Z,23.23
2023-01-23T00:45:58.543Z,29.02
2023-01-23T00:48:27.983Z,22.08
2023-01-23T00:50:55.925Z,24.98
2023-01-23T00:53:24.054Z,25.83
2023-01-23T00:55:52.191Z,26.35
2023-01-23T00:58:20.046Z,23.23
2023-01-23T01:00:47.853Z,23.45
2023-01-23T01:03:15.633Z,25.70
2023-01-23T01:05:44.811Z,28.17
2023-01-23T01:08:12.772Z,29.83
2023-01-23T01:10:41.172Z,25.05
2023-01-23T01:13:10.128Z,24.48
2023-01-23T01:15:39.316Z,27.13
2023-01-23T01:18:07.267Z,23.17
2023-01-23T01:20:35.236Z,24.48
2023-01-23T01:23:06.303Z,26.58
2023-01-23T01:25:34.130Z,24.50
2023-01-23T01:28:01.929Z,35.58
2023-01-23T01:30:30.406Z,31.27
2023-01-23T01:32:58.483Z,23.88
2023-01-23T01:35:26.413Z,24.08
2023-01-23T01:37:54.403Z,31.65
2023-01-23T01:40:25.832Z,29.33
2023-01-23T01:42:55.959Z,28.15
2023-01-23T01:46:01.153Z,31.17
2023-01-23T01:48:32.662Z,26.10
2023-01-23T01:51:01.248Z,25.30
2023-01-23T01:53:30.254Z,37.05
2023-01-23T01:55:59.870Z,33.53
2023-01-23T01:58:28.912Z,32.58
2023-01-23T02:00:58.926Z,27.42
2023-01-23T02:03:27.548Z,33.88
2023-01-23T02:05:55.354Z,31.15
2023-01-23T02:08:27.725Z,31.33
2023-01-23T02:10:55.822Z,28.83
2023-01-23T02:13:30.518Z,25.42
2023-01-23T02:16:00.047Z,31.33
2023-01-23T02:18:28.603Z,31.27
2023-01-23T02:20:58.170Z,35.35
2023-01-23T02:23:35.202Z,41.03
2023-01-23T02:26:06.869Z,33.55
2023-01-23T02:28:39.966Z,31.38
2023-01-23T02:31:08.193Z,37.92
2023-01-23T02:33:48.455Z,33.53
2023-01-23T02:36:18.484Z,36.60
2023-01-23T02:38:57.013Z,33.53
2023-01-23T02:41:30.041Z,28.63
2023-01-23T02:44:01.138Z,35.67
2023-01-23T02:46:29.080Z,33.67
2023-01-23T02:48:58.423Z,32.55
2023-01-23T02:51:26.405Z,32.53
2023-01-23T02:53:54.257Z,33.33
2023-01-23T02:56:22.120Z,31.90
2023-01-23T02:59:09.143Z,35.75
2023-01-23T03:01:37.086Z,32.30
2023-01-23T03:04:06.460Z,40.80
2023-01-23T03:06:37.703Z,37.63
2023-01-23T03:09:09.059Z,32.15
2023-01-23T03:11:38.450Z,33.67
2023-01-23T03:14:09.930Z,34.25
2023-01-23T03:16:38.593Z,29.98
2023-01-23T03:19:09.227Z,31.23
2023-01-23T03:21:40.340Z,36.10
2023-01-23T03:24:09.847Z,35.20
2023-01-23T03:26:39.949Z,38.50
2023-01-23T03:29:33.290Z,38.38
2023-01-23T03:32:01.455Z,46.17
2023-01-23T03:34:29.332Z,46.80
2023-01-23T03:36:57.456Z,36.67
2023-01-23T03:39:52.183Z,37.92
2023-01-23T03:42:21.338Z,41.95
2023-01-23T03:44:53.828Z,30.67
2023-01-23T03:47:26.353Z,42.05
2023-01-23T03:49:56.116Z,36.78
2023-01-23T03:52:24.728Z,38.00
2023-01-23T03:54:52.726Z,37.45
2023-01-23T03:57:20.561Z,36.50
2023-01-23T03:59:48.421Z,35.50
2023-01-23T04:02:20.357Z,37.45
2023-01-23T04:04:48.452Z,36.83
2023-01-23T04:07:16.297Z,43.92
2023-01-23T04:09:45.443Z,38.53
2023-01-23T04:12:13.279Z,40.00
2023-01-23T04:14:44.840Z,36.35
2023-01-23T04:17:14.789Z,37.55
2023-01-23T04:19:43.953Z,40.92
2023-01-23T04:22:11.841Z,40.15
2023-01-23T04:24:45.343Z,31.23
2023-01-23T04:27:13.187Z,40.60
2023-01-23T04:29:41.055Z,37.90
2023-01-23T04:32:10.319Z,42.20
2023-01-23T04:34:46.222Z,39.90
2023-01-23T04:37:14.239Z,34.67
2023-01-23T04:39:42.158Z,33.80
2023-01-23T04:42:10.197Z,42.22
2023-01-23T04:45:03.437Z,37.90
2023-01-23T04:47:46.473Z,43.78
2023-01-23T04:50:18.842Z,42.08
2023-01-23T04:52:47.882Z,34.20
2023-01-23T04:55:16.050Z,39.85
2023-01-23T04:57:44.837Z,38.38
2023-01-23T05:00:28.889Z,37.10
2023-01-23T05:02:59.113Z,36.05
2023-01-23T05:05:28.313Z,42.00
2023-01-23T05:08:00.270Z,42.17
2023-01-23T05:10:29.572Z,35.83
2023-01-23T05:13:00.151Z,37.30
2023-01-23T05:15:30.063Z,39.03
2023-01-23T05:17:58.606Z,33.38
2023-01-23T05:20:27.899Z,33.83
2023-01-23T05:22:59.649Z,35.03
2023-01-23T05:25:35.338Z,36.88
2023-01-23T05:28:03.234Z,37.92
2023-01-23T05:30:32.577Z,35.30
2023-01-23T05:33:17.358Z,39.58
2023-01-23T05:35:46.494Z,33.40
2023-01-23T05:38:15.066Z,38.47
2023-01-23T05:40:44.249Z,32.33
2023-01-23T05:43:15.569Z,35.30
2023-01-23T05:46:02.647Z,34.83
2023-01-23T05:48:43.058Z,36.58
2023-01-23T05:51:15.084Z,34.08
2023-01-23T05:53:43.925Z,37.60
2023-01-23T05:56:12.048Z,38.35
2023-01-23T05:58:59.935Z,34.35
2023-01-23T06:01:54.103Z,40.40
2023-01-23T06:04:51.142Z,39.80
2023-01-23T06:07:26.897Z,36.67
2023-01-23T06:09:57.922Z,38.88
2023-01-23T06:12:26.134Z,37.15
2023-01-23T06:14:54.927Z,39.53
2023-01-23T06:17:23.182Z,40.72
2023-01-23T06:19:52.337Z,37.80
2023-01-23T06:22:20.147Z,33.75
2023-01-23T06:25:02.859Z,37.13
2023-01-23T06:27:30.744Z,39.88
2023-01-23T06:29:59.665Z,37.95
2023-01-23T06:32:27.696Z,36.85
2023-01-23T06:34:55.643Z,38.53
2023-01-23T06:37:23.465Z,35.03
2023-01-23T06:39:51.989Z,39.55
2023-01-23T06:42:22.565Z,40.65
2023-01-23T06:44:50.631Z,38.28
2023-01-23T06:47:19.643Z,37.97
2023-01-23T06:49:55.129Z,34.10
2023-01-23T06:52:24.610Z,44.08
2023-01-23T06:54:52.463Z,35.35
2023-01-23T06:57:20.324Z,36.00
2023-01-23T06:59:51.186Z,36.13
2023-01-23T07:02:21.309Z,35.42
2023-01-23T07:04:51.324Z,34.85
2023-01-23T07:07:19.636Z,34.42
2023-01-23T07:09:49.425Z,37.28
2023-01-23T07:12:20.934Z,38.90
2023-01-23T07:14:50.122Z,33.55
2023-01-23T07:17:26.286Z,34.67
2023-01-23T07:19:54.212Z,34.35
2023-01-23T07:22:22.855Z,37.72
2023-01-23T07:24:50.800Z,36.90
2023-01-23T07:27:18.733Z,33.40
2023-01-23T07:29:46.507Z,41.60
2023-01-23T07:32:15.695Z,42.10
2023-01-23T07:34:43.453Z,38.55
2023-01-23T07:37:11.247Z,38.70
2023-01-23T07:39:39.127Z,40.42
2023-01-23T07:42:07.100Z,45.35
2023-01-23T07:44:35.002Z,37.10
2023-01-23T07:47:02.879Z,41.35
2023-01-23T07:49:32.031Z,34.17
2023-01-23T07:51:59.895Z,42.47
2023-01-23T07:54:27.767Z,36.90
2023-01-23T07:56:56.095Z,42.65
2023-01-23T07:59:23.916Z,38.22
2023-01-23T08:01:52.685Z,40.75
2023-01-23T08:04:20.619Z,36.70
2023-01-23T08:06:49.871Z,34.22
2023-01-23T08:09:17.728Z,49.25
2023-01-23T08:11:45.422Z,38.13
2023-01-23T08:14:13.245Z,43.50
2023-01-23T08:16:41.073Z,48.70
2023-01-23T08:19:09.447Z,37.45
2023-01-23T08:21:37.214Z,41.42
2023-01-23T08:24:07.029Z,36.22
2023-01-23T08:26:34.897Z,39.63
2023-01-23T08:29:02.871Z,38.22
2023-01-23T08:31:30.693Z,39.25
2023-01-23T08:33:58.601Z,39.17
2023-01-23T08:36:26.497Z,36.25
2023-01-23T08:38:54.397Z,38.20
2023-01-23T08:41:24.454Z,31.65
2023-01-23T08:43:52.351Z,32.50
2023-01-23T08:46:20.442Z,37.30
2023-01-23T08:48:48.230Z,40.75
2023-01-23T08:51:16.261Z,39.42
2023-01-23T08:53:44.032Z,35.40
2023-01-23T08:56:16.816Z,34.92
2023-01-23T08:58:46.644Z,49.10
2023-01-23T09:01:15.369Z,36.67
2023-01-23T09:03:43.553Z,37.65
2023-01-23T09:06:12.723Z,35.85
2023-01-23T09:08:40.683Z,40.95
2023-01-23T09:11:10.330Z,37.03
2023-01-23T09:13:38.353Z,35.97
2023-01-23T09:16:09.360Z,35.55
2023-01-23T09:18:38.028Z,35.15
2023-01-23T09:21:09.421Z,38.40
2023-01-23T09:23:37.413Z,33.63
2023-01-23T09:26:06.301Z,38.20
2023-01-23T09:28:34.296Z,35.40
2023-01-23T09:31:05.441Z,33.83
2023-01-23T09:33:34.842Z,31.63
2023-01-23T09:36:02.860Z,38.17
2023-01-23T09:38:30.777Z,31.02
2023-01-23T09:41:00.220Z,32.25
2023-01-23T09:43:36.981Z,34.25
2023-01-23T09:46:07.331Z,35.42
2023-01-23T09:48:44.212Z,39.17
2023-01-23T09:51:17.144Z,38.58
2023-01-23T09:53:45.136Z,38.97
2023-01-23T09:56:21.683Z,35.42
2023-01-23T09:58:55.391Z,34.03
2023-01-23T10:01:24.660Z,31.38
2023-01-23T10:03:53.836Z,35.03
2023-01-23T10:06:24.507Z,34.53
2023-01-23T10:09:19.757Z,32.80
2023-01-23T10:11:57.327Z,33.92
2023-01-23T10:14:40.084Z,30.90
2023-01-23T10:17:14.894Z,28.83
2023-01-23T10:19:57.824Z,30.60
2023-01-23T10:22:34.648Z,30.77
2023-01-23T10:25:08.979Z,29.15
2023-01-23T10:27:42.084Z,28.35
2023-01-23T10:30:20.657Z,29.75
2023-01-23T10:32:52.068Z,30.88
2023-01-23T10:35:26.283Z,30.20
2023-01-23T10:38:00.361Z,25.88
2023-01-23T10:40:46.515Z,28.63
2023-01-23T10:43:16.157Z,25.13
2023-01-23T10:45:44.731Z,30.98
2023-01-23T10:48:43.527Z,26.15
2023-01-23T10:51:36.415Z,25.08
2023-01-23T10:54:19.391Z,29.42
2023-01-23T10:56:58.262Z,28.80
2023-01-23T10:59:34.759Z,26.70
2023-01-23T11:02:21.525Z,29.55
2023-01-23T11:04:51.830Z,26.23
2023-01-23T11:07:23.040Z,26.50
2023-01-23T11:09:54.537Z,25.23
2023-01-23T11:12:24.379Z,24.27
2023-01-23T11:14:53.022Z,23.95
2023-01-23T11:17:23.465Z,25.45
2023-01-23T11:19:53.669Z,27.58
2023-01-23T11:22:31.488Z,24.30
2023-01-23T11:25:00.135Z,24.85
2023-01-23T11:27:30.477Z,23.33
2023-01-23T11:30:37.752Z,24.10
2023-01-23T11:33:14.578Z,23.05
2023-01-23T11:35:56.437Z,22.27
2023-01-23T11:38:31.103Z,24.00
2023-01-23T11:40:59.475Z,22.05
2023-01-23T11:43:27.368Z,22.00
2023-01-23T11:46:30.592Z,19.88
2023-01-23T11:49:18.265Z,23.00
2023-01-23T11:51:51.598Z,25.33
2023-01-23T11:54:35.042Z,25.60
2023-01-23T11:57:03.909Z,24.13
2023-01-23T11:59:45.887Z,25.15
2023-01-23T12:02:54.236Z,21.98
2023-01-23T12:05:47.488Z,24.33
2023-01-23T12:08:24.025Z,21.85
2023-01-23T12:11:00.807Z,22.15
2023-01-23T12:13:45.251Z,25.67
2023-01-23T12:16:22.374Z,24.27
2023-01-23T12:18:58.981Z,22.38
2023-01-23T12:21:30.146Z,19.25
2023-01-23T12:24:09.671Z,21.20
2023-01-23T12:26:45.378Z,21.65
2023-01-23T12:29:30.194Z,24.13
2023-01-23T12:32:09.243Z,22.55
2023-01-23T12:34:52.045Z,22.42
2023-01-23T12:37:31.682Z,22.70
2023-01-23T12:40:07.722Z,26.25
2023-01-23T12:42:42.556Z,24.10
2023-01-23T12:47:44.750Z,25.98
2023-01-23T12:50:19.909Z,21.90
2023-01-23T12:52:50.422Z,23.02
2023-01-23T12:55:22.537Z,22.92
2023-01-23T12:58:00.619Z,30.48
2023-01-23T13:00:47.434Z,23.95
2023-01-23T13:03:37.246Z,22.83
2023-01-23T13:06:19.684Z,21.60
2023-01-23T13:09:02.660Z,25.88
2023-01-23T13:11:41.479Z,22.35
2023-01-23T13:14:23.355Z,23.27
2023-01-23T13:16:53.675Z,21.63
2023-01-23T13:19:45.242Z,21.75
2023-01-23T13:22:27.264Z,29.48
2023-01-23T13:25:18.611Z,25.08
2023-01-23T13:27:49.464Z,29.55
2023-01-23T13:30:43.556Z,23.85
2023-01-23T13:33:45.081Z,25.27
2023-01-23T13:36:30.155Z,23.73
2023-01-23T13:39:05.876Z,24.58
2023-01-23T13:41:34.437Z,25.15
2023-01-23T13:44:05.924Z,28.48
2023-01-23T14:21:48.301Z,23.08
2023-01-23T14:24:23.521Z,22.88
2023-01-23T14:26:54.669Z,24.10
2023-01-23T14:29:30.242Z,24.85
2023-01-23T14:31:58.329Z,31.77
2023-01-23T14:34:26.994Z,25.00
2023-01-23T14:37:02.962Z,26.27
2023-01-23T14:39:32.326Z,23.98
2023-01-23T14:42:02.693Z,25.67
2023-01-23T14:44:34.715Z,25.25
2023-01-23T14:47:04.181Z,23.50
2023-01-23T14:49:34.451Z,23.60
2023-01-23T14:52:05.668Z,26.98
2023-01-23T14:54:36.851Z,26.70
2023-01-23T14:57:09.127Z,21.85
2023-01-23T14:59:39.342Z,28.77
2023-01-23T15:02:26.675Z,24.55
2023-01-23T15:05:20.798Z,28.55
2023-01-23T15:07:54.723Z,27.00
2023-01-23T15:12:54.062Z,20.33
2023-01-23T15:15:24.475Z,25.27
2023-01-23T15:17:53.108Z,24.10
2023-01-23T15:20:41.303Z,23.38
2023-01-23T15:23:28.332Z,21.10
2023-01-23T15:26:18.882Z,26.75
2023-01-23T15:28:51.559Z,25.90
2023-01-23T15:31:25.786Z,22.60
2023-01-23T15:33:54.437Z,22.25
2023-01-23T15:36:27.684Z,24.38
2023-01-23T15:38:58.505Z,25.40
2023-01-23T15:41:40.117Z,22.63
2023-01-23T15:44:14.061Z,24.63
2023-01-23T15:46:41.990Z,23.58
2023-01-23T15:49:23.530Z,24.55
2023-01-23T15:51:53.391Z,26.50
2023-01-23T15:54:26.084Z,25.52
2023-01-23T15:57:07.192Z,31.25
2023-01-23T15:59:47.341Z,27.13
2023-01-23T16:02:30.196Z,25.50
2023-01-23T16:05:02.702Z,27.90
2023-01-23T16:07:34.418Z,28.55
2023-01-23T16:10:05.153Z,27.77
2023-01-23T16:12:35.543Z,29.83
2023-01-23T16:15:03.468Z,28.65
2023-01-23T16:17:31.339Z,25.08
2023-01-23T16:19:59.100Z,26.95
2023-01-23T16:22:29.428Z,25.15
2023-01-23T16:24:57.999Z,27.15
2023-01-23T16:27:28.258Z,23.10
2023-01-23T16:29:56.694Z,25.63
2023-01-23T16:32:25.146Z,24.05
2023-01-23T16:34:53.195Z,22.67
2023-01-23T16:37:21.111Z,23.10
2023-01-23T16:39:49.040Z,25.80
2023-01-23T16:42:20.826Z,25.33
2023-01-23T16:44:50.640Z,24.10
2023-01-23T16:47:18.613Z,24.73
2023-01-23T16:49:52.660Z,23.65
2023-01-23T16:52:21.852Z,24.15
2023-01-23T16:54:52.597Z,26.55
2023-01-23T16:57:21.613Z,20.83
2023-01-23T16:59:52.191Z,24.25
2023-01-23T17:02:22.569Z,25.65
2023-01-23T17:04:50.977Z,26.55
2023-01-23T17:07:22.148Z,20.83
2023-01-23T17:09:51.724Z,22.88
2023-01-23T17:12:22.146Z,22.98
2023-01-23T17:14:52.595Z,26.27
2023-01-23T17:17:25.257Z,23.00
2023-01-23T17:19:53.067Z,18.35
2023-01-23T17:22:22.973Z,21.65
2023-01-23T17:24:51.312Z,35.60
2023-01-23T17:27:19.238Z,22.90
2023-01-23T17:29:47.122Z,23.60
2023-01-23T17:32:23.554Z,22.98
2023-01-23T17:34:51.560Z,27.23
2023-01-23T17:37:22.217Z,21.27
2023-01-23T17:39:50.767Z,17.85
2023-01-23T17:42:18.615Z,19.73
2023-01-23T17:44:46.586Z,20.23
2023-01-23T17:47:15.297Z,19.70
2023-01-23T17:49:46.911Z,20.08
2023-01-23T17:52:14.863Z,24.98
2023-01-23T17:54:42.732Z,21.27
2023-01-23T17:57:10.804Z,20.20
2023-01-23T17:59:38.908Z,18.73
2023-01-23T18:02:20.853Z,24.58
2023-01-23T18:04:50.170Z,18.13
2023-01-23T18:07:18.250Z,19.33
2023-01-23T18:09:46.139Z,20.88
2023-01-23T18:12:17.842Z,18.08
2023-01-23T18:14:48.922Z,22.35
2023-01-23T18:17:23.992Z,20.95
2023-01-23T18:19:54.112Z,23.88
2023-01-23T18:22:22.440Z,26.02
2023-01-23T18:24:50.912Z,26.40
2023-01-23T18:27:22.033Z,23.13
2023-01-23T18:30:05.580Z,23.30
2023-01-23T18:32:50.182Z,22.60
2023-01-23T18:38:06.931Z,20.40
2023-01-23T18:40:41.754Z,25.13
2023-01-23T18:43:24.378Z,19.48
2023-01-23T18:45:56.819Z,20.05
2023-01-23T18:48:27.716Z,21.15
2023-01-23T18:51:09.456Z,19.80
2023-01-23T18:53:51.527Z,18.58
2023-01-23T18:56:29.711Z,21.52
2023-01-23T18:59:12.010Z,22.30
2023-01-23T19:01:50.196Z,20.42
2023-01-23T19:04:25.291Z,23.02
2023-01-23T19:06:58.945Z,19.50
2023-01-23T19:09:29.381Z,20.80
2023-01-23T19:12:09.474Z,22.25
2023-01-23T19:14:58.969Z,23.00
2023-01-23T19:17:35.647Z,22.15
2023-01-23T19:20:07.148Z,24.52
2023-01-23T19:22:47.482Z,24.05
2023-01-23T19:25:19.380Z,21.42
2023-01-23T19:27:57.340Z,25.55
2023-01-23T19:30:27.161Z,26.25
2023-01-23T19:33:00.021Z,23.95
2023-01-23T19:35:32.297Z,26.07
2023-01-23T19:38:02.212Z,25.05
2023-01-23T19:40:30.630Z,20.10
2023-01-23T19:43:13.749Z,24.48
2023-01-23T19:45:45.539Z,21.92
2023-01-23T19:48:14.874Z,21.77
2023-01-23T19:50:47.229Z,25.90
2023-01-23T19:55:55.781Z,23.98
2023-01-23T19:58:26.016Z,21.73
2023-01-23T20:00:57.622Z,23.48
2023-01-23T20:03:35.684Z,23.17
2023-01-23T20:06:13.055Z,20.42
2023-01-23T20:08:47.935Z,25.45
2023-01-23T20:11:16.555Z,23.02
2023-01-23T20:13:44.671Z,26.83
2023-01-23T20:16:16.106Z,24.50
2023-01-23T20:18:45.232Z,21.65
2023-01-23T20:21:13.427Z,29.05
2023-01-23T20:23:41.619Z,25.60
2023-01-23T20:26:17.299Z,25.10
2023-01-23T20:28:47.708Z,24.43
2023-01-23T20:31:15.668Z,23.85
2023-01-23T20:33:47.190Z,23.38
2023-01-23T20:36:15.955Z,25.13
2023-01-23T20:38:43.959Z,24.30
2023-01-23T20:41:15.194Z,21.77
2023-01-23T20:43:43.730Z,21.63
2023-01-23T20:46:12.762Z,23.33
2023-01-23T20:48:45.139Z,26.17
2023-01-23T20:51:14.850Z,24.35
2023-01-23T20:53:43.441Z,23.52
2023-01-23T20:56:18.374Z,29.38
2023-01-23T20:59:05.719Z,21.67
2023-01-23T21:01:55.593Z,20.85
2023-01-23T21:04:25.280Z,23.15
2023-01-23T21:06:53.381Z,24.17
2023-01-23T21:09:21.849Z,21.88
2023-01-23T21:11:52.420Z,23.10
2023-01-23T21:14:21.166Z,26.83
2023-01-23T21:16:49.725Z,24.27
2023-01-23T21:19:17.523Z,23.27
2023-01-23T21:21:45.532Z,26.58
2023-01-23T21:24:14.066Z,27.33
2023-01-23T21:26:41.948Z,24.48
2023-01-23T21:29:11.645Z,27.52
2023-01-23T21:31:40.623Z,24.63
2023-01-23T21:34:10.762Z,23.27
2023-01-23T21:36:43.032Z,19.33
2023-01-23T21:39:12.432Z,21.13
2023-01-23T21:41:40.325Z,24.40
2023-01-23T21:44:08.387Z,23.33
2023-01-23T21:46:37.824Z,21.83
2023-01-23T21:49:05.644Z,19.77
2023-01-23T21:51:33.482Z,22.02
2023-01-23T21:54:01.493Z,22.27
2023-01-23T21:56:29.472Z,21.58
2023-01-23T21:58:57.404Z,22.67
2023-01-23T22:01:37.728Z,19.73
2023-01-23T22:04:09.167Z,19.02
2023-01-23T22:06:38.449Z,21.70
2023-01-23T22:09:07.068Z,22.80
2023-01-23T22:11:35.354Z,24.77
2023-01-23T22:14:04.545Z,23.73
2023-01-23T22:16:47.325Z,22.08
2023-01-23T22:19:17.935Z,21.75
2023-01-23T22:21:46.663Z,20.73
2023-01-23T22:24:15.067Z,20.83
2023-01-23T22:26:43.166Z,21.98
2023-01-23T22:29:13.924Z,21.13
2023-01-23T22:31:42.756Z,22.70
2023-01-23T22:34:10.974Z,22.80
2023-01-23T22:36:40.178Z,24.05
2023-01-23T22:39:08.067Z,22.15
2023-01-23T22:41:36.138Z,22.20
2023-01-23T22:44:03.988Z,24.98
2023-01-23T22:46:32.568Z,25.20
2023-01-23T22:49:00.599Z,22.63
2023-01-23T22:51:29.029Z,22.75
2023-01-23T22:53:58.974Z,23.55
2023-01-23T22:56:28.569Z,22.02
2023-01-23T22:58:57.454Z,21.25
2023-01-23T23:01:27.052Z,20.20
2023-01-23T23:03:55.675Z,20.30
2023-01-23T23:06:23.741Z,19.60
2023-01-23T23:08:51.540Z,26.70
2023-01-23T23:11:22.866Z,21.75
2023-01-23T23:13:51.216Z,18.92
2023-01-23T23:16:20.748Z,21.33
2023-01-23T23:18:50.007Z,20.73
2023-01-23T23:21:20.324Z,20.98
2023-01-23T23:23:48.343Z,22.00
2023-01-23T23:26:17.075Z,20.90
2023-01-23T23:28:46.380Z,19.50
2023-01-23T23:31:14.248Z,19.65
2023-01-23T23:33:42.058Z,19.48
2023-01-23T23:36:10.583Z,20.80
2023-01-23T23:38:38.510Z,19.30
2023-01-23T23:41:08.457Z,19.98
2023-01-23T23:43:36.325Z,20.58
2023-01-23T23:46:07.092Z,21.38
2023-01-23T23:48:36.938Z,21.02
2023-01-23T23:51:06.261Z,20.65
2023-01-23T23:53:34.547Z,23.20
2023-01-23T23:56:02.275Z,18.65
2023-01-23T23:58:30.205Z,21.05
